createdAt,value
2022-11-22T00:00:19.230Z,5.88
2022-11-22T00:02:46.027Z,5.78
2022-11-22T00:05:12.971Z,5.79
2022-11-22T00:07:39.693Z,5.76
2022-11-22T00:10:07.749Z,5.71
2022-11-22T00:12:34.617Z,5.67
2022-11-22T00:15:01.177Z,5.70
2022-11-22T00:17:27.762Z,5.70
2022-11-22T00:19:54.238Z,5.68
2022-11-22T00:22:20.761Z,5.69
2022-11-22T00:24:47.560Z,5.69
2022-11-22T00:27:14.441Z,5.77
2022-11-22T00:29:43.613Z,5.75
2022-11-22T00:32:10.295Z,5.75
2022-11-22T00:34:36.813Z,5.80
2022-11-22T00:37:03.365Z,5.85
2022-11-22T00:39:30.006Z,5.82
2022-11-22T00:41:56.815Z,5.81
2022-11-22T00:44:23.302Z,5.79
2022-11-22T00:46:50.038Z,5.74
2022-11-22T00:49:16.532Z,5.81
2022-11-22T00:51:43.045Z,5.85
2022-11-22T00:54:09.624Z,5.83
2022-11-22T00:56:36.224Z,5.81
2022-11-22T00:59:03.052Z,5.77
2022-11-22T01:01:29.692Z,5.71
2022-11-22T01:03:56.267Z,5.68
2022-11-22T01:06:23.075Z,5.74
2022-11-22T01:08:49.842Z,5.73
2022-11-22T01:11:18.536Z,5.72
2022-11-22T01:13:45.254Z,5.70
2022-11-22T01:16:13.710Z,5.67
2022-11-22T01:18:40.701Z,5.61
2022-11-22T01:21:07.368Z,5.62
2022-11-22T01:23:34.660Z,5.59
2022-11-22T01:26:02.101Z,5.65
2022-11-22T01:28:29.019Z,5.66
2022-11-22T01:30:55.874Z,5.65
2022-11-22T01:33:22.457Z,5.65
2022-11-22T01:35:49.248Z,5.72
2022-11-22T01:38:16.078Z,5.87
2022-11-22T01:40:42.667Z,5.89
2022-11-22T01:43:18.574Z,5.85
2022-11-22T01:45:53.339Z,5.78
2022-11-22T01:48:25.688Z,5.76
2022-11-22T01:50:58.639Z,5.79
2022-11-22T01:53:30.442Z,5.78
2022-11-22T01:55:59.408Z,5.74
2022-11-22T01:58:28.966Z,5.81
2022-11-22T02:00:56.174Z,5.78
2022-11-22T02:03:24.123Z,5.77
2022-11-22T02:05:52.241Z,5.79
2022-11-22T02:08:34.278Z,5.82
2022-11-22T02:11:03.475Z,5.74
2022-11-22T02:13:34.433Z,5.71
2022-11-22T02:16:01.401Z,5.65
2022-11-22T02:18:27.970Z,5.68
2022-11-22T02:20:55.396Z,5.66
2022-11-22T02:23:33.498Z,5.66
2022-11-22T02:26:01.622Z,5.58
2022-11-22T02:28:35.018Z,5.53
2022-11-22T02:31:01.677Z,5.53
2022-11-22T02:33:28.376Z,5.54
2022-11-22T02:35:55.803Z,5.57
2022-11-22T02:38:30.580Z,5.55
2022-11-22T02:41:02.317Z,5.49
2022-11-22T02:43:37.624Z,5.39
2022-11-22T02:46:13.469Z,5.34
2022-11-22T02:48:44.436Z,5.31
2022-11-22T02:51:11.954Z,5.26
2022-11-22T02:53:38.451Z,5.24
2022-11-22T02:56:05.232Z,5.21
2022-11-22T02:58:31.744Z,5.23
2022-11-22T03:00:58.825Z,5.31
2022-11-22T03:03:25.547Z,5.42
2022-11-22T03:05:52.346Z,5.35
2022-11-22T03:08:18.884Z,5.27
2022-11-22T03:10:45.426Z,5.19
2022-11-22T03:13:11.917Z,5.13
2022-11-22T03:15:38.419Z,5.06
2022-11-22T03:18:05.319Z,5.05
2022-11-22T03:20:33.366Z,5.04
2022-11-22T03:23:00.729Z,5.07
2022-11-22T03:25:27.598Z,4.99
2022-11-22T03:27:54.150Z,4.95
2022-11-22T03:30:20.690Z,4.92
2022-11-22T03:32:47.174Z,4.92
2022-11-22T03:35:13.657Z,4.93
2022-11-22T03:37:40.236Z,4.92
2022-11-22T03:40:07.522Z,4.99
2022-11-22T03:42:34.138Z,5.00
2022-11-22T03:45:00.630Z,5.01
2022-11-22T03:47:27.126Z,4.98
2022-11-22T03:49:53.633Z,4.94
2022-11-22T03:52:20.215Z,4.87
2022-11-22T03:54:46.766Z,4.85
2022-11-22T03:57:13.372Z,4.88
2022-11-22T03:59:42.497Z,4.91
2022-11-22T04:02:09.137Z,5.00
2022-11-22T04:04:35.662Z,5.00
2022-11-22T04:07:02.219Z,5.01
2022-11-22T04:09:29.209Z,4.98
2022-11-22T04:11:56.022Z,4.96
2022-11-22T04:14:40.883Z,4.94
2022-11-22T04:17:07.342Z,4.92
2022-11-22T04:19:33.875Z,4.88
2022-11-22T04:22:00.390Z,4.91
2022-11-22T04:24:47.579Z,4.94
2022-11-22T04:27:14.064Z,4.94
2022-11-22T04:29:40.546Z,4.88
2022-11-22T04:32:27.384Z,4.82
2022-11-22T04:34:53.882Z,4.75
2022-11-22T04:37:20.456Z,4.68
2022-11-22T04:39:46.935Z,4.66
2022-11-22T04:42:31.705Z,4.68
2022-11-22T04:44:58.175Z,4.72
2022-11-22T04:47:48.833Z,4.75
2022-11-22T04:50:35.017Z,4.86
2022-11-22T04:53:01.536Z,4.88
2022-11-22T04:55:28.051Z,4.90
2022-11-22T04:57:59.150Z,4.91
2022-11-22T05:00:27.661Z,4.94
2022-11-22T05:02:54.370Z,4.93
2022-11-22T05:05:20.866Z,4.89
2022-11-22T05:07:47.442Z,4.90
2022-11-22T05:10:14.196Z,4.94
2022-11-22T05:12:41.718Z,4.91
2022-11-22T05:15:10.420Z,4.89
2022-11-22T05:17:38.168Z,4.93
2022-11-22T05:20:09.208Z,4.94
2022-11-22T05:22:54.268Z,4.95
2022-11-22T05:25:25.460Z,4.99
2022-11-22T05:27:55.275Z,4.99
2022-11-22T05:30:21.895Z,4.99
2022-11-22T05:32:48.415Z,5.04
2022-11-22T05:35:15.035Z,5.07
2022-11-22T05:37:41.573Z,5.07
2022-11-22T05:40:08.756Z,5.09
2022-11-22T05:42:35.816Z,5.09
2022-11-22T05:45:02.327Z,5.09
2022-11-22T05:47:28.850Z,5.12
2022-11-22T05:49:55.474Z,5.20
2022-11-22T05:52:21.931Z,5.16
2022-11-22T05:54:48.413Z,5.18
2022-11-22T05:57:14.939Z,5.15
2022-11-22T05:59:44.364Z,5.10
2022-11-22T06:02:11.375Z,5.07
2022-11-22T06:04:37.958Z,4.99
2022-11-22T06:07:09.860Z,4.92
2022-11-22T06:09:37.198Z,4.92
2022-11-22T06:12:04.171Z,4.93
2022-11-22T06:14:30.709Z,4.95
2022-11-22T06:16:57.385Z,4.90
2022-11-22T06:19:24.119Z,4.86
2022-11-22T06:21:50.622Z,4.86
2022-11-22T06:24:17.202Z,4.97
2022-11-22T06:26:43.766Z,5.06
2022-11-22T06:29:10.432Z,5.11
2022-11-22T06:31:37.203Z,5.12
2022-11-22T06:34:03.782Z,5.06
2022-11-22T06:36:33.471Z,5.03
2022-11-22T06:39:02.077Z,4.99
2022-11-22T06:41:32.854Z,4.89
2022-11-22T06:43:59.406Z,4.84
2022-11-22T06:46:27.776Z,4.78
2022-11-22T06:48:54.376Z,4.80
2022-11-22T06:51:26.526Z,4.79
2022-11-22T06:53:57.715Z,4.82
2022-11-22T06:56:29.002Z,4.90
2022-11-22T06:58:55.714Z,4.91
2022-11-22T07:01:28.265Z,4.94
2022-11-22T07:03:58.173Z,4.95
2022-11-22T07:06:30.919Z,4.97
2022-11-22T07:09:01.914Z,5.07
2022-11-22T07:11:31.099Z,5.11
2022-11-22T07:14:06.564Z,5.21
2022-11-22T07:16:36.065Z,5.26
2022-11-22T07:19:03.056Z,5.34
2022-11-22T07:21:29.603Z,5.37
2022-11-22T07:23:56.221Z,5.46
2022-11-22T07:26:24.998Z,5.44
2022-11-22T07:28:51.845Z,5.46
2022-11-22T07:31:18.978Z,5.51
2022-11-22T07:33:45.985Z,5.57
2022-11-22T07:36:18.748Z,5.61
2022-11-22T07:38:45.686Z,5.64
2022-11-22T07:41:13.541Z,5.62
2022-11-22T07:43:40.252Z,5.64
2022-11-22T07:46:11.625Z,5.67
2022-11-22T07:48:38.137Z,5.73
2022-11-22T07:51:06.852Z,5.71
2022-11-22T07:53:35.050Z,5.76
2022-11-22T07:56:03.244Z,5.75
2022-11-22T07:58:29.887Z,5.80
2022-11-22T08:00:56.461Z,5.84
2022-11-22T08:03:28.648Z,5.91
2022-11-22T08:06:02.650Z,5.94
2022-11-22T08:08:29.407Z,5.96
2022-11-22T08:10:56.015Z,6.03
2022-11-22T08:13:23.372Z,6.06
2022-11-22T08:15:51.516Z,6.05
2022-11-22T08:18:21.333Z,6.09
2022-11-22T08:20:47.910Z,6.10
2022-11-22T08:23:14.462Z,6.15
2022-11-22T08:25:40.997Z,6.17
2022-11-22T08:28:07.527Z,6.22
2022-11-22T08:30:34.061Z,6.25
2022-11-22T08:33:00.598Z,6.25
2022-11-22T08:35:27.142Z,6.22
2022-11-22T08:37:57.726Z,6.24
2022-11-22T08:40:24.612Z,6.23
2022-11-22T08:42:54.894Z,6.20
2022-11-22T08:45:22.594Z,6.25
2022-11-22T08:47:49.214Z,6.25
2022-11-22T08:50:17.786Z,6.31
2022-11-22T08:52:44.541Z,6.32
2022-11-22T08:55:11.085Z,6.34
2022-11-22T08:57:37.637Z,6.36
2022-11-22T09:00:06.298Z,6.44
2022-11-22T09:02:32.894Z,6.47
2022-11-22T09:04:59.402Z,6.55
2022-11-22T09:10:12.701Z,6.88
2022-11-22T09:12:43.548Z,7.16
2022-11-22T09:15:10.772Z,7.27
2022-11-22T09:17:37.271Z,7.27
2022-11-22T09:20:04.581Z,7.30
2022-11-22T09:22:31.797Z,7.18
2022-11-22T09:24:58.386Z,7.13
2022-11-22T09:27:24.964Z,7.04
2022-11-22T09:29:51.576Z,7.01
2022-11-22T09:32:18.194Z,7.02
2022-11-22T09:34:44.719Z,7.01
2022-11-22T09:37:11.241Z,7.01
2022-11-22T09:39:37.788Z,7.02
2022-11-22T09:42:29.482Z,7.03
2022-11-22T09:45:33.471Z,7.05
2022-11-22T09:48:09.767Z,7.09
2022-11-22T09:51:03.750Z,7.05
2022-11-22T09:53:38.332Z,7.07
2022-11-22T09:56:11.683Z,7.12
2022-11-22T09:58:46.605Z,7.09
2022-11-22T10:01:19.851Z,7.11
2022-11-22T10:04:05.435Z,7.12
2022-11-22T10:06:39.347Z,7.12
2022-11-22T10:09:24.446Z,7.13
2022-11-22T10:11:57.772Z,7.14
2022-11-22T10:14:36.450Z,7.20
2022-11-22T10:17:25.624Z,7.22
2022-11-22T10:20:04.718Z,7.20
2022-11-22T10:22:32.325Z,7.23
2022-11-22T10:25:00.685Z,7.29
2022-11-22T10:27:32.963Z,7.29
2022-11-22T10:30:21.618Z,7.26
2022-11-22T10:33:08.875Z,7.31
2022-11-22T10:35:51.341Z,7.30
2022-11-22T10:38:53.240Z,7.28
2022-11-22T10:41:40.273Z,7.27
2022-11-22T10:44:18.711Z,7.31
2022-11-22T10:46:57.017Z,7.43
2022-11-22T10:49:26.933Z,7.48
2022-11-22T10:52:14.670Z,7.61
2022-11-22T10:54:56.373Z,7.60
2022-11-22T10:57:22.818Z,7.60
2022-11-22T10:59:55.745Z,7.60
2022-11-22T11:02:43.071Z,7.57
2022-11-22T11:05:14.888Z,7.56
2022-11-22T11:07:47.572Z,7.58
2022-11-22T11:10:29.147Z,7.59
2022-11-22T11:13:05.806Z,7.57
2022-11-22T11:15:42.812Z,7.57
2022-11-22T11:18:17.845Z,7.65
2022-11-22T11:20:47.701Z,7.68
2022-11-22T11:23:16.264Z,7.66
2022-11-22T11:25:45.463Z,7.73
2022-11-22T11:28:17.847Z,7.72
2022-11-22T11:30:48.126Z,7.82
2022-11-22T11:33:30.197Z,7.91
2022-11-22T11:36:09.162Z,7.89
2022-11-22T11:38:41.629Z,7.88
2022-11-22T11:41:21.083Z,7.93
2022-11-22T11:43:49.270Z,8.00
2022-11-22T11:46:42.383Z,8.10
2022-11-22T11:49:15.884Z,8.19
2022-11-22T11:51:48.527Z,8.26
2022-11-22T11:54:17.309Z,8.30
2022-11-22T11:56:57.557Z,8.26
2022-11-22T11:59:36.127Z,8.16
2022-11-22T12:02:15.155Z,8.14
2022-11-22T12:05:07.503Z,8.07
2022-11-22T12:07:34.083Z,8.00
2022-11-22T12:10:01.684Z,7.93
2022-11-22T12:12:37.119Z,7.92
2022-11-22T12:15:15.965Z,7.86
2022-11-22T12:18:09.192Z,7.87
2022-11-22T12:20:46.506Z,7.85
2022-11-22T12:23:36.251Z,7.77
2022-11-22T12:26:02.862Z,7.73
2022-11-22T12:28:29.940Z,7.76
2022-11-22T12:31:13.604Z,7.76
2022-11-22T12:33:43.987Z,7.86
2022-11-22T12:36:17.721Z,7.92
2022-11-22T12:38:46.655Z,7.92
2022-11-22T12:41:18.158Z,7.91
2022-11-22T12:44:03.261Z,7.93
2022-11-22T12:46:39.629Z,7.99
2022-11-22T12:49:44.716Z,7.99
2022-11-22T12:52:32.319Z,7.99
2022-11-22T12:55:16.066Z,7.98
2022-11-22T12:58:14.760Z,8.07
2022-11-22T13:00:59.469Z,8.10
2022-11-22T13:03:48.956Z,8.17
2022-11-22T13:06:20.186Z,8.18
2022-11-22T13:09:04.266Z,8.15
2022-11-22T13:11:58.688Z,8.21
2022-11-22T13:14:35.812Z,8.32
2022-11-22T13:17:11.107Z,8.35
2022-11-22T13:20:01.836Z,8.37
2022-11-22T13:23:09.998Z,8.41
2022-11-22T13:25:48.549Z,8.46
2022-11-22T13:28:25.658Z,8.44
2022-11-22T13:31:10.360Z,8.49
2022-11-22T13:33:40.087Z,8.49
2022-11-22T13:36:28.322Z,8.50
2022-11-22T13:38:57.102Z,8.53
2022-11-22T13:41:41.756Z,8.51
2022-11-22T13:44:23.339Z,8.53
2022-11-22T13:46:49.836Z,8.57
2022-11-22T13:49:39.112Z,8.61
2022-11-22T13:52:13.411Z,8.62
2022-11-22T13:55:00.154Z,8.58
2022-11-22T13:57:31.203Z,8.57
2022-11-22T14:00:13.198Z,8.62
2022-11-22T14:03:21.077Z,8.64
2022-11-22T14:05:50.363Z,8.67
2022-11-22T14:08:32.777Z,8.70
2022-11-22T14:10:59.236Z,8.73
2022-11-22T14:13:48.293Z,8.72
2022-11-22T14:16:17.630Z,8.74
2022-11-22T14:19:06.871Z,8.76
2022-11-22T14:22:33.440Z,8.79
2022-11-22T14:25:30.294Z,8.84
2022-11-22T14:28:19.942Z,8.94
2022-11-22T14:30:52.237Z,9.14
2022-11-22T14:33:24.491Z,9.29
2022-11-22T14:36:06.518Z,9.50
2022-11-22T14:38:35.457Z,9.51
2022-11-22T14:41:36.448Z,9.51
2022-11-22T14:44:16.123Z,9.42
2022-11-22T14:46:54.300Z,9.33
2022-11-22T14:49:34.800Z,9.33
2022-11-22T14:52:01.765Z,9.22
2022-11-22T14:54:38.975Z,9.09
2022-11-22T14:57:09.688Z,8.93
2022-11-22T15:00:02.720Z,8.85
2022-11-22T15:03:02.488Z,8.75
2022-11-22T15:09:19.648Z,8.71
2022-11-22T15:09:42.076Z,8.75
2022-11-22T15:12:23.177Z,8.70
2022-11-22T15:57:38.683Z,8.66
2022-11-22T16:00:32.612Z,8.56
2022-11-22T16:03:02.914Z,8.42
2022-11-22T16:06:07.070Z,8.35
2022-11-22T16:08:26.629Z,8.29
2022-11-22T16:10:57.493Z,8.23
2022-11-22T16:13:29.124Z,8.21
2022-11-22T16:16:13.725Z,8.18
2022-11-22T16:18:41.704Z,8.22
2022-11-22T16:21:11.410Z,8.29
2022-11-22T16:23:42.321Z,8.29
2022-11-22T16:26:20.669Z,8.29
2022-11-22T16:28:49.285Z,8.24
2022-11-22T16:31:31.642Z,8.20
2022-11-22T16:33:58.733Z,8.26
2022-11-22T16:36:29.462Z,8.25
2022-11-22T16:38:55.963Z,8.19
2022-11-22T16:41:25.785Z,8.21
2022-11-22T16:43:55.069Z,8.16
2022-11-22T16:46:22.343Z,8.10
2022-11-22T16:48:49.435Z,8.07
2022-11-22T16:51:36.228Z,8.00
2022-11-22T16:54:11.159Z,7.97
2022-11-22T16:56:37.699Z,7.98
2022-11-22T16:59:09.672Z,8.02
2022-11-22T17:01:42.122Z,8.07
2022-11-22T17:04:21.049Z,8.07
2022-11-22T17:06:47.648Z,8.02
2022-11-22T17:09:14.157Z,8.01
2022-11-22T17:11:43.008Z,8.07
2022-11-22T17:14:14.502Z,8.15
2022-11-22T17:16:42.269Z,8.22
2022-11-22T17:19:30.214Z,8.28
2022-11-22T17:21:56.062Z,8.30
2022-11-22T17:24:25.674Z,8.39
2022-11-22T17:26:52.288Z,8.41
2022-11-22T17:29:48.812Z,8.42
2022-11-22T17:32:05.649Z,8.41
2022-11-22T17:34:32.537Z,8.43
2022-11-22T17:36:59.220Z,8.44
2022-11-22T17:39:25.759Z,8.49
2022-11-22T17:41:52.256Z,8.51
2022-11-22T17:44:18.836Z,8.46
2022-11-22T17:46:47.099Z,8.46
2022-11-22T17:49:16.218Z,8.44
2022-11-22T17:51:43.414Z,8.44
2022-11-22T17:54:10.036Z,8.54
2022-11-22T17:56:37.591Z,8.65
2022-11-22T17:59:05.185Z,8.66
2022-11-22T18:01:32.084Z,8.61
2022-11-22T18:03:58.700Z,8.66
2022-11-22T18:06:26.465Z,8.67
2022-11-22T18:08:53.269Z,8.68
2022-11-22T18:11:20.207Z,8.69
2022-11-22T18:13:47.317Z,8.72
2022-11-22T18:16:17.261Z,8.70
2022-11-22T18:19:00.041Z,8.72
2022-11-22T18:21:31.965Z,8.74
2022-11-22T18:23:59.325Z,8.73
2022-11-22T18:26:42.331Z,8.69
2022-11-22T18:31:57.167Z,8.49
2022-11-22T18:34:24.097Z,8.45
2022-11-22T18:37:06.974Z,8.46
2022-11-22T18:39:37.069Z,8.35
2022-11-22T18:42:05.828Z,8.26
2022-11-22T18:44:32.396Z,8.24
2022-11-22T18:46:58.965Z,8.28
2022-11-22T18:49:25.541Z,8.31
2022-11-22T18:51:52.087Z,8.44
2022-11-22T18:54:19.843Z,8.51
2022-11-22T18:56:46.499Z,8.51
2022-11-22T18:59:13.322Z,8.55
2022-11-22T19:01:40.908Z,8.55
2022-11-22T19:04:07.972Z,8.55
2022-11-22T19:06:34.735Z,8.56
2022-11-22T19:09:02.126Z,8.58
2022-11-22T19:11:30.446Z,8.58
2022-11-22T19:13:57.023Z,8.63
2022-11-22T19:16:25.809Z,8.65
2022-11-22T19:18:52.357Z,8.65
2022-11-22T19:21:21.586Z,8.67
2022-11-22T19:23:49.750Z,8.65
2022-11-22T19:26:20.682Z,8.67
2022-11-22T19:28:48.559Z,8.68
2022-11-22T19:31:19.688Z,8.69
2022-11-22T19:33:46.843Z,8.67
2022-11-22T19:36:19.549Z,8.72
2022-11-22T19:38:46.962Z,8.69
2022-11-22T19:41:17.112Z,8.66
2022-11-22T19:43:44.540Z,8.66
2022-11-22T19:46:11.526Z,8.64
2022-11-22T19:48:42.357Z,8.63
2022-11-22T19:51:13.855Z,8.65
2022-11-22T19:53:42.046Z,8.64
2022-11-22T19:56:29.636Z,8.66
2022-11-22T19:58:57.634Z,8.64
2022-11-22T20:01:26.137Z,8.65
2022-11-22T20:03:55.059Z,8.64
2022-11-22T20:06:21.741Z,8.62
2022-11-22T20:08:48.362Z,8.63
2022-11-22T20:11:17.570Z,8.64
2022-11-22T20:13:46.614Z,8.61
2022-11-22T20:16:23.612Z,8.61
2022-11-22T20:18:53.959Z,8.61
2022-11-22T20:21:22.399Z,8.58
2022-11-22T20:23:50.398Z,8.57
2022-11-22T20:26:17.922Z,8.55
2022-11-22T20:28:45.668Z,8.56
2022-11-22T20:31:16.247Z,8.55
2022-11-22T20:33:45.828Z,8.57
2022-11-22T20:36:15.239Z,8.55
2022-11-22T20:38:43.370Z,8.52
2022-11-22T20:41:12.653Z,8.54
2022-11-22T20:43:39.627Z,8.49
2022-11-22T20:46:09.267Z,8.49
2022-11-22T20:48:37.797Z,8.47
2022-11-22T20:51:07.540Z,8.46
2022-11-22T20:53:34.781Z,8.44
2022-11-22T20:56:02.011Z,8.44
2022-11-22T20:58:28.935Z,8.46
2022-11-22T21:00:56.539Z,8.45
2022-11-22T21:03:24.917Z,8.43
2022-11-22T21:05:53.568Z,8.42
2022-11-22T21:08:21.443Z,8.43
2022-11-22T21:10:48.433Z,8.47
2022-11-22T21:13:15.247Z,8.48
2022-11-22T21:15:41.907Z,8.47
2022-11-22T21:18:24.860Z,8.47
2022-11-22T21:20:52.339Z,8.45
2022-11-22T21:23:18.833Z,8.41
2022-11-22T21:25:46.244Z,8.42
2022-11-22T21:28:12.781Z,8.35
2022-11-22T21:30:39.304Z,8.28
2022-11-22T21:33:05.851Z,8.22
2022-11-22T21:35:32.386Z,8.13
2022-11-22T21:37:58.884Z,8.07
2022-11-22T21:40:25.430Z,8.03
2022-11-22T21:42:51.909Z,7.94
2022-11-22T21:45:18.421Z,7.91
2022-11-22T21:47:47.397Z,7.88
2022-11-22T21:50:15.375Z,7.91
2022-11-22T21:52:42.569Z,7.96
2022-11-22T21:55:09.889Z,8.01
2022-11-22T21:57:36.412Z,7.97
2022-11-22T22:00:04.888Z,7.94
2022-11-22T22:02:32.833Z,7.94
2022-11-22T22:04:59.452Z,7.87
2022-11-22T22:07:50.773Z,7.88
2022-11-22T22:10:14.621Z,7.85
2022-11-22T22:12:41.351Z,7.83
2022-11-22T22:15:14.663Z,7.80
2022-11-22T22:17:41.193Z,7.84
2022-11-22T22:20:08.321Z,7.87
2022-11-22T22:22:36.818Z,7.90
2022-11-22T22:25:05.292Z,7.85
2022-11-22T22:27:33.232Z,7.79
2022-11-22T22:30:00.481Z,7.74
2022-11-22T22:32:27.956Z,7.71
2022-11-22T22:34:54.558Z,7.71
2022-11-22T22:37:21.080Z,7.67
2022-11-22T22:39:47.608Z,7.65
2022-11-22T22:42:14.275Z,7.68
2022-11-22T22:44:40.807Z,7.67
2022-11-22T22:47:07.395Z,7.75
2022-11-22T22:49:34.118Z,7.75
2022-11-22T22:52:00.927Z,7.73
2022-11-22T22:54:27.445Z,7.71
2022-11-22T22:56:53.982Z,7.73
2022-11-22T22:59:20.537Z,7.75
2022-11-22T23:01:47.047Z,7.75
2022-11-22T23:04:13.616Z,7.69
2022-11-22T23:06:40.222Z,7.78
2022-11-22T23:09:08.938Z,7.85
2022-11-22T23:11:55.256Z,7.85
2022-11-22T23:14:24.365Z,7.82
2022-11-22T23:16:57.098Z,7.82
2022-11-22T23:19:24.487Z,7.90
2022-11-22T23:21:51.132Z,7.90
2022-11-22T23:24:18.988Z,8.00
2022-11-22T23:26:45.497Z,7.97
2022-11-22T23:29:12.138Z,7.98
2022-11-22T23:31:38.810Z,8.07
2022-11-22T23:34:05.396Z,8.10
2022-11-22T23:36:35.973Z,8.14
2022-11-22T23:39:05.742Z,8.15
2022-11-22T23:41:32.253Z,8.16
2022-11-22T23:43:58.806Z,8.19
2022-11-22T23:46:27.981Z,8.18
2022-11-22T23:48:56.996Z,8.13
2022-11-22T23:51:24.347Z,8.11
2022-11-22T23:54:02.642Z,8.06
2022-11-22T23:56:30.982Z,7.99
2022-11-22T23:59:01.589Z,7.94
